Time;durP1;ratioP1;P1;durP2;ratioP2;P2;SDS_P1;SDS_P2;PMS_P1;PMS_P2;Temp;Humidity;BMP_temperature;BMP_pressure;BME280_temperature;BME280_humidity;BME280_pressure;Samples;Min_cycle;Max_cycle;Signal;HPM_P1;HPM_P2
2021/08/14 00:01:35;;;;;;;3.78;0.65;;;28.10;42.50;;;;;;4975133;28;20038;-51
2021/08/14 00:04:04;;;;;;;4.65;2.08;;;28.10;42.60;;;;;;4980907;28;20150;-51
2021/08/14 00:06:31;;;;;;;5.97;0.95;;;28.00;42.70;;;;;;4982827;28;20475;-50
2021/08/14 00:08:58;;;;;;;5.10;0.57;;;28.00;42.70;;;;;;4984482;28;20042;-51
2021/08/14 00:11:25;;;;;;;8.25;0.43;;;28.00;42.70;;;;;;4971836;28;20086;-52
2021/08/14 00:13:52;;;;;;;4.30;0.60;;;28.00;42.80;;;;;;4963756;28;20512;-47
2021/08/14 00:16:19;;;;;;;4.72;1.55;;;27.90;42.80;;;;;;4986630;28;20534;-54
2021/08/14 00:18:46;;;;;;;6.25;0.60;;;27.90;42.80;;;;;;4983247;28;20408;-53
2021/08/14 00:21:15;;;;;;;4.57;0.57;;;27.90;42.80;;;;;;4986374;28;20046;-53
2021/08/14 00:23:42;;;;;;;10.07;1.40;;;27.90;42.80;;;;;;4983792;28;20180;-54
2021/08/14 00:26:09;;;;;;;3.97;0.40;;;27.80;42.60;;;;;;4980004;28;20042;-51
2021/08/14 00:28:37;;;;;;;4.15;0.52;;;27.80;42.60;;;;;;4974493;28;20555;-53
2021/08/14 00:31:04;;;;;;;2.53;0.30;;;27.80;42.60;;;;;;4986580;28;20060;-51
2021/08/14 00:33:31;;;;;;;7.40;0.88;;;27.80;42.60;;;;;;4982427;28;20055;-49
2021/08/14 00:35:58;;;;;;;5.78;0.73;;;27.70;42.60;;;;;;4985980;28;20034;-53
2021/08/14 00:38:27;;;;;;;1.90;0.57;;;27.70;42.60;;;;;;4971360;28;20512;-52
2021/08/14 00:40:54;;;;;;;8.55;0.63;;;27.70;42.60;;;;;;4984795;28;20051;-54
2021/08/14 00:43:22;;;;;;;4.97;0.50;;;27.70;42.60;;;;;;4984524;28;20050;-50
2021/08/14 00:45:50;;;;;;;6.85;1.20;;;27.70;42.60;;;;;;4982775;28;20047;-51
2021/08/14 00:48:17;;;;;;;6.75;0.73;;;27.60;42.50;;;;;;4983127;28;20145;-55
2021/08/14 00:50:44;;;;;;;7.28;0.80;;;27.60;42.60;;;;;;4982752;28;20043;-52
2021/08/14 00:53:11;;;;;;;7.50;1.02;;;27.50;42.60;;;;;;4986453;28;20136;-51
2021/08/14 00:55:42;;;;;;;6.70;0.68;;;27.60;42.70;;;;;;4969833;28;20492;-53
2021/08/14 00:58:10;;;;;;;5.45;0.93;;;27.60;42.60;;;;;;4985241;28;20076;-51
2021/08/14 01:00:38;;;;;;;3.67;0.80;;;27.50;42.50;;;;;;4981546;28;20056;-52
2021/08/14 01:03:05;;;;;;;2.95;1.02;;;27.50;42.50;;;;;;4988200;28;20042;-53
2021/08/14 01:05:32;;;;;;;3.15;0.60;;;27.50;42.50;;;;;;4976685;28;20073;-50
2021/08/14 01:07:59;;;;;;;2.80;0.70;;;27.40;42.40;;;;;;4991009;28;20134;-51
2021/08/14 01:10:26;;;;;;;9.85;0.70;;;27.40;42.30;;;;;;4979101;28;20473;-53
2021/08/14 01:12:55;;;;;;;3.80;0.45;;;27.40;42.30;;;;;;4983855;28;20054;-52
2021/08/14 01:15:22;;;;;;;8.95;0.82;;;27.40;42.30;;;;;;4985935;28;20051;-54
2021/08/14 01:17:52;;;;;;;4.75;0.73;;;27.30;42.30;;;;;;4962629;28;20055;-52
2021/08/14 01:20:19;;;;;;;3.33;0.57;;;27.30;42.40;;;;;;4990426;28;20070;-53
2021/08/14 01:22:46;;;;;;;5.63;0.73;;;27.30;42.50;;;;;;4987960;28;20038;-51
2021/08/14 01:25:13;;;;;;;11.15;0.80;;;27.30;42.60;;;;;;4977207;28;20042;-50
2021/08/14 01:27:43;;;;;;;3.70;0.45;;;27.30;42.60;;;;;;4979394;28;20039;-52
2021/08/14 01:30:11;;;;;;;2.97;0.90;;;27.20;42.70;;;;;;4979162;28;20481;-51
2021/08/14 01:32:39;;;;;;;4.13;0.73;;;27.20;42.70;;;;;;4976061;28;20134;-47
2021/08/14 01:35:07;;;;;;;3.55;0.50;;;27.20;42.70;;;;;;4990092;28;20056;-55
2021/08/14 01:37:35;;;;;;;1.95;0.82;;;27.20;42.60;;;;;;4987569;28;20535;-50
2021/08/14 01:40:04;;;;;;;7.68;1.55;;;27.20;42.60;;;;;;4980053;28;20135;-52
2021/08/14 01:42:31;;;;;;;8.13;1.08;;;27.10;42.60;;;;;;4979147;28;20570;-50
2021/08/14 01:44:59;;;;;;;4.88;0.77;;;27.10;42.70;;;;;;4975856;28;20494;-52
2021/08/14 01:47:26;;;;;;;4.93;0.55;;;27.10;42.70;;;;;;4990397;28;20466;-49
2021/08/14 01:49:53;;;;;;;3.08;0.52;;;27.10;42.70;;;;;;4974637;28;20074;-54
2021/08/14 01:52:20;;;;;;;3.72;1.38;;;27.00;42.70;;;;;;4979086;28;20571;-49
2021/08/14 01:54:49;;;;;;;6.90;0.50;;;27.00;42.70;;;;;;4979386;28;20097;-50
2021/08/14 01:57:17;;;;;;;1.70;0.40;;;27.00;42.80;;;;;;4976456;28;20038;-54
2021/08/14 01:59:45;;;;;;;4.63;0.88;;;27.00;42.80;;;;;;4986000;28;20143;-46
2021/08/14 02:02:13;;;;;;;3.70;0.95;;;27.00;42.80;;;;;;4989024;28;20157;-46
2021/08/14 02:04:41;;;;;;;5.45;0.57;;;27.00;42.80;;;;;;4976136;28;20049;-51
2021/08/14 02:07:08;;;;;;;7.88;0.50;;;26.90;42.80;;;;;;4978408;28;20411;-49
2021/08/14 02:09:36;;;;;;;4.55;0.55;;;26.90;42.70;;;;;;4977637;28;20149;-51
2021/08/14 02:12:03;;;;;;;1.02;0.20;;;26.90;42.70;;;;;;4976265;28;20749;-52
2021/08/14 02:14:30;;;;;;;4.88;0.60;;;26.90;42.80;;;;;;4987648;28;20052;-50
2021/08/14 02:16:57;;;;;;;5.35;0.40;;;26.80;42.70;;;;;;4987977;28;20041;-54
2021/08/14 02:19:26;;;;;;;6.32;0.57;;;26.80;43.30;;;;;;4977793;28;20047;-54
2021/08/14 02:21:53;;;;;;;3.83;1.30;;;26.80;42.70;;;;;;4978183;28;20504;-52
2021/08/14 02:24:20;;;;;;;8.70;0.75;;;26.80;42.70;;;;;;4978374;28;20227;-52
2021/08/14 02:26:47;;;;;;;8.80;0.63;;;26.80;42.70;;;;;;4973623;28;20120;-53
2021/08/14 02:29:14;;;;;;;5.65;0.57;;;26.70;42.60;;;;;;4974384;28;20409;-53
2021/08/14 02:31:41;;;;;;;5.55;0.57;;;26.70;42.50;;;;;;4986527;28;20125;-52
2021/08/14 02:34:08;;;;;;;7.22;0.70;;;26.70;42.50;;;;;;4983962;28;20043;-50
2021/08/14 02:36:36;;;;;;;2.92;0.40;;;26.70;42.50;;;;;;4989526;28;20064;-49
2021/08/14 02:39:05;;;;;;;6.45;0.47;;;26.70;42.60;;;;;;4984695;28;20477;-48
2021/08/14 02:41:32;;;;;;;2.03;1.15;;;26.60;42.60;;;;;;4986405;28;20488;-53
2021/08/14 02:43:59;;;;;;;2.65;0.30;;;26.60;42.50;;;;;;4987655;28;20138;-53
2021/08/14 02:46:26;;;;;;;4.97;0.57;;;26.60;42.60;;;;;;4977464;28;20511;-51
2021/08/14 02:48:53;;;;;;;4.30;0.45;;;26.60;42.60;;;;;;4982362;28;20047;-53
2021/08/14 02:51:20;;;;;;;2.47;0.40;;;26.50;42.60;;;;;;4984551;28;20089;-50
2021/08/14 02:53:49;;;;;;;2.95;0.60;;;26.50;42.60;;;;;;4984810;28;20043;-53
2021/08/14 02:56:16;;;;;;;3.92;0.95;;;26.50;42.60;;;;;;4973909;28;20045;-51
2021/08/14 02:58:43;;;;;;;4.07;0.63;;;26.50;42.50;;;;;;4986274;28;20070;-50
2021/08/14 03:01:10;;;;;;;5.80;1.27;;;26.50;42.60;;;;;;4989141;28;20042;-51
2021/08/14 03:03:38;;;;;;;1.90;0.45;;;26.40;42.60;;;;;;4978082;28;20043;-52
2021/08/14 03:06:22;;;;;;;2.88;0.63;;;26.50;42.70;;;;;;4976850;28;20054;-53
2021/08/14 03:08:51;;;;;;;4.18;0.60;;;26.40;42.60;;;;;;4973935;28;20101;-53
2021/08/14 03:11:18;;;;;;;4.03;1.05;;;26.40;42.70;;;;;;4983056;28;20113;-50
2021/08/14 03:13:45;;;;;;;5.25;0.95;;;26.40;42.70;;;;;;4970704;28;20606;-52
2021/08/14 03:16:12;;;;;;;4.05;0.60;;;26.40;42.80;;;;;;4956236;28;20117;-49
2021/08/14 03:18:40;;;;;;;6.88;0.57;;;26.40;43.40;;;;;;4979602;28;20129;-50
2021/08/14 03:21:07;;;;;;;4.07;0.55;;;26.30;42.70;;;;;;4981936;28;20129;-47
2021/08/14 03:23:34;;;;;;;5.13;0.50;;;26.30;42.70;;;;;;4986431;28;20050;-51
2021/08/14 03:26:02;;;;;;;2.60;0.47;;;26.30;42.70;;;;;;4986673;28;20046;-49
2021/08/14 03:28:30;;;;;;;3.88;0.90;;;26.30;42.70;;;;;;4975904;28;20039;-54
2021/08/14 03:30:57;;;;;;;3.35;0.63;;;26.30;42.70;;;;;;4981489;28;20069;-51
2021/08/14 03:33:24;;;;;;;4.15;0.40;;;26.20;42.60;;;;;;4979045;28;20046;-53
2021/08/14 03:35:51;;;;;;;3.80;0.73;;;26.30;42.70;;;;;;4972912;28;20050;-51
2021/08/14 03:38:18;;;;;;;5.35;1.35;;;26.30;42.70;;;;;;4973143;28;20151;-52
2021/08/14 03:40:46;;;;;;;2.28;0.63;;;26.20;42.70;;;;;;4974204;28;20125;-52
2021/08/14 03:43:18;;;;;;;1.52;0.63;;;26.20;42.80;;;;;;4984141;28;20118;-49
2021/08/14 03:45:46;;;;;;;2.83;0.50;;;26.20;42.80;;;;;;4978038;28;20046;-49
2021/08/14 03:48:13;;;;;;;3.75;0.98;;;26.20;42.90;;;;;;4976684;28;20082;-49
2021/08/14 03:50:40;;;;;;;6.60;0.95;;;26.10;42.90;;;;;;4967939;28;20124;-52
2021/08/14 03:53:07;;;;;;;4.45;0.60;;;26.10;43.00;;;;;;4988404;28;20110;-50
2021/08/14 03:55:34;;;;;;;5.30;0.75;;;26.10;43.00;;;;;;4983710;28;20134;-49
2021/08/14 03:58:01;;;;;;;6.72;0.50;;;26.10;43.10;;;;;;4983559;28;20042;-49
2021/08/14 04:00:30;;;;;;;2.50;0.43;;;26.10;43.20;;;;;;4983371;28;20112;-53
2021/08/14 04:02:57;;;;;;;2.88;0.63;;;26.10;43.30;;;;;;4986434;28;20039;-52
2021/08/14 04:05:24;;;;;;;8.48;1.38;;;26.10;43.30;;;;;;4976440;28;20084;-56
2021/08/14 04:07:51;;;;;;;4.13;0.52;;;26.00;43.20;;;;;;4974658;28;20098;-52
2021/08/14 04:10:18;;;;;;;4.57;1.20;;;26.00;43.30;;;;;;4983373;28;20101;-52
2021/08/14 04:12:45;;;;;;;6.40;0.63;;;26.00;43.30;;;;;;4983355;28;20763;-52
2021/08/14 04:15:13;;;;;;;3.70;0.40;;;26.00;43.40;;;;;;4983254;28;20078;-52
2021/08/14 04:17:41;;;;;;;5.88;0.47;;;26.00;43.50;;;;;;4987654;28;20042;-54
2021/08/14 04:20:10;;;;;;;2.83;0.68;;;25.90;44.00;;;;;;4985834;28;20038;-49
2021/08/14 04:22:37;;;;;;;5.95;1.42;;;26.00;43.50;;;;;;4976692;28;20051;-53
2021/08/14 04:25:05;;;;;;;6.30;0.68;;;25.90;43.40;;;;;;4963103;28;20057;-47
2021/08/14 04:27:32;;;;;;;6.75;0.95;;;25.90;43.40;;;;;;4981348;28;20526;-52
2021/08/14 04:30:00;;;;;;;8.63;1.65;;;25.90;43.40;;;;;;4963177;28;20049;-50
2021/08/14 04:32:32;;;;;;;4.47;0.68;;;25.90;43.40;;;;;;4988605;28;20070;-53
2021/08/14 04:35:02;;;;;;;5.03;0.75;;;25.90;43.40;;;;;;4989652;28;20050;-53
2021/08/14 04:37:29;;;;;;;3.35;0.43;;;25.90;43.50;;;;;;4979512;28;20093;-54
2021/08/14 04:39:56;;;;;;;6.50;0.60;;;25.90;43.60;;;;;;4985153;28;20534;-48
2021/08/14 04:42:23;;;;;;;7.32;0.75;;;25.80;43.50;;;;;;4985920;28;20093;-49
2021/08/14 04:44:50;;;;;;;5.07;1.27;;;25.80;43.60;;;;;;4982227;28;20036;-48
2021/08/14 04:47:17;;;;;;;4.30;1.02;;;25.80;43.70;;;;;;4990839;28;20117;-48
2021/08/14 04:49:44;;;;;;;4.15;1.25;;;25.80;43.70;;;;;;4992392;28;20056;-46
2021/08/14 04:52:13;;;;;;;4.15;0.93;;;25.80;43.70;;;;;;4991063;28;20062;-49
2021/08/14 04:54:40;;;;;;;4.00;0.63;;;25.80;43.80;;;;;;4990577;28;20046;-49
2021/08/14 04:57:08;;;;;;;6.03;1.30;;;25.80;43.80;;;;;;4972394;28;20408;-56
2021/08/14 04:59:35;;;;;;;6.13;0.95;;;25.80;43.90;;;;;;4971089;28;20048;-50
2021/08/14 05:02:03;;;;;;;3.97;0.93;;;25.80;43.90;;;;;;4991000;28;20096;-49
2021/08/14 05:04:31;;;;;;;5.50;0.68;;;25.70;43.90;;;;;;4991994;28;20045;-52
2021/08/14 05:07:00;;;;;;;4.40;0.77;;;25.70;44.00;;;;;;4990391;28;20038;-50
2021/08/14 05:09:28;;;;;;;4.15;0.85;;;25.70;44.00;;;;;;4987731;28;20101;-50
2021/08/14 05:11:55;;;;;;;5.93;0.60;;;25.70;44.00;;;;;;4986586;28;20038;-54
2021/08/14 05:14:23;;;;;;;4.40;0.50;;;25.70;44.00;;;;;;4990169;28;20089;-53
2021/08/14 05:16:50;;;;;;;1.90;0.50;;;25.70;44.10;;;;;;4985034;28;20035;-57
2021/08/14 05:19:17;;;;;;;6.80;1.08;;;25.70;44.10;;;;;;4989376;28;20206;-54
2021/08/14 05:21:44;;;;;;;6.15;1.33;;;25.60;44.00;;;;;;4981843;28;20063;-64
2021/08/14 05:24:11;;;;;;;3.50;0.73;;;25.70;44.30;;;;;;4983690;28;20181;-59
2021/08/14 05:26:40;;;;;;;5.53;0.75;;;25.70;44.20;;;;;;4988612;28;20046;-61
2021/08/14 05:29:07;;;;;;;8.05;0.93;;;25.70;44.30;;;;;;4990866;28;20066;-50
2021/08/14 05:31:34;;;;;;;4.20;1.10;;;25.70;44.30;;;;;;4969555;28;20141;-57
2021/08/14 05:34:04;;;;;;;8.68;1.55;;;25.60;44.30;;;;;;4990047;28;20046;-55
2021/08/14 05:36:32;;;;;;;5.38;1.95;;;25.60;44.30;;;;;;4989777;28;20073;-59
2021/08/14 05:38:59;;;;;;;5.93;1.02;;;25.60;44.40;;;;;;4989782;28;20088;-59
2021/08/14 05:41:26;;;;;;;8.05;2.47;;;25.60;44.40;;;;;;4987640;28;20047;-58
2021/08/14 05:43:55;;;;;;;4.40;1.00;;;25.60;44.50;;;;;;4971876;28;20092;-57
2021/08/14 05:46:22;;;;;;;7.63;1.27;;;25.50;44.40;;;;;;4990740;28;20046;-58
2021/08/14 05:48:49;;;;;;;6.97;0.85;;;25.50;44.40;;;;;;4988415;28;20065;-58
2021/08/14 05:51:16;;;;;;;6.95;1.20;;;25.50;44.40;;;;;;4989648;28;20451;-58
2021/08/14 05:53:44;;;;;;;3.03;0.77;;;25.40;44.40;;;;;;4990119;28;20038;-57
2021/08/14 05:56:11;;;;;;;28.25;3.55;;;25.40;44.50;;;;;;4989801;28;20042;-59
2021/08/14 05:58:38;;;;;;;14.60;1.08;;;25.40;44.90;;;;;;4991224;28;20516;-66
2021/08/14 06:01:07;;;;;;;5.32;1.73;;;25.40;45.20;;;;;;4989372;28;20074;-56
2021/08/14 06:03:35;;;;;;;3.17;1.17;;;25.60;45.40;;;;;;4985893;28;20046;-59
2021/08/14 06:06:04;;;;;;;6.53;0.68;;;25.60;45.60;;;;;;4984949;28;20047;-58
2021/08/14 06:08:31;;;;;;;5.63;0.73;;;25.70;45.50;;;;;;4987708;28;20567;-57
2021/08/14 06:10:59;;;;;;;4.18;0.50;;;25.80;45.50;;;;;;4988243;28;20086;-57
2021/08/14 06:13:26;;;;;;;6.55;0.60;;;25.90;46.00;;;;;;4986380;28;20516;-59
2021/08/14 06:15:54;;;;;;;5.40;0.68;;;26.00;45.30;;;;;;4984632;28;20050;-59
2021/08/14 06:18:22;;;;;;;6.50;1.80;;;26.10;45.30;;;;;;4987165;28;20618;-58
2021/08/14 06:20:49;;;;;;;5.90;1.13;;;26.10;45.10;;;;;;4989269;28;20133;-60
2021/08/14 06:23:17;;;;;;;3.45;0.75;;;26.20;45.10;;;;;;4974360;28;20483;-59
2021/08/14 06:25:44;;;;;;;3.53;1.15;;;26.30;45.10;;;;;;4986699;28;20424;-58
2021/08/14 06:28:11;;;;;;;4.05;1.33;;;26.30;45.00;;;;;;4985069;28;20119;-57
2021/08/14 06:30:38;;;;;;;2.40;0.73;;;26.40;44.90;;;;;;4982348;28;20069;-59
2021/08/14 06:33:05;;;;;;;4.25;0.93;;;26.50;44.90;;;;;;4974922;28;20468;-58
2021/08/14 06:35:34;;;;;;;7.05;0.82;;;26.50;44.80;;;;;;4989324;28;20049;-58
2021/08/14 06:38:01;;;;;;;4.65;0.85;;;26.60;44.70;;;;;;4973797;28;20043;-60
2021/08/14 06:40:28;;;;;;;3.78;0.68;;;26.60;44.60;;;;;;4975346;28;20055;-59
2021/08/14 06:42:55;;;;;;;2.67;0.40;;;26.70;44.60;;;;;;4981331;28;20046;-57
2021/08/14 06:45:23;;;;;;;4.75;0.65;;;26.70;44.50;;;;;;4984420;28;20042;-59
2021/08/14 06:47:50;;;;;;;2.67;0.32;;;26.80;44.50;;;;;;4989497;28;20487;-58
2021/08/14 06:50:18;;;;;;;2.15;0.50;;;26.80;44.40;;;;;;4973553;28;20050;-59
2021/08/14 06:52:47;;;;;;;2.13;0.47;;;26.90;44.40;;;;;;4986570;28;20042;-59
2021/08/14 06:55:14;;;;;;;5.03;0.75;;;26.90;44.30;;;;;;4984372;28;20065;-60
2021/08/14 06:57:41;;;;;;;5.90;0.35;;;27.00;44.30;;;;;;4981921;28;20050;-59
2021/08/14 07:00:09;;;;;;;2.25;0.82;;;27.00;44.20;;;;;;4982773;28;20053;-57
2021/08/14 07:02:36;;;;;;;3.45;1.20;;;27.00;44.20;;;;;;4976231;28;20045;-56
2021/08/14 07:05:04;;;;;;;1.48;0.50;;;27.00;44.20;;;;;;4972929;28;20054;-59
2021/08/14 07:07:31;;;;;;;4.25;0.47;;;27.10;44.20;;;;;;4981312;28;20109;-60
2021/08/14 07:09:59;;;;;;;3.20;1.13;;;27.20;44.10;;;;;;4976981;28;20611;-60
2021/08/14 07:12:26;;;;;;;3.25;0.30;;;27.20;44.00;;;;;;4978093;28;20056;-59
2021/08/14 07:14:55;;;;;;;4.00;1.42;;;27.20;44.00;;;;;;4983993;28;20871;-60
2021/08/14 07:17:22;;;;;;;3.25;0.68;;;27.20;43.90;;;;;;4988179;28;20051;-61
2021/08/14 07:19:49;;;;;;;6.38;1.58;;;27.30;43.90;;;;;;4973557;28;20086;-60
2021/08/14 07:22:16;;;;;;;6.47;2.10;;;27.30;43.90;;;;;;4984467;28;20050;-60
2021/08/14 07:24:43;;;;;;;6.03;2.75;;;27.40;43.90;;;;;;4983068;28;20152;-60
2021/08/14 07:27:12;;;;;;;4.15;2.50;;;27.40;43.80;;;;;;4983385;28;20418;-60
2021/08/14 07:29:39;;;;;;;4.47;2.30;;;27.40;43.70;;;;;;4973180;28;20100;-59
2021/08/14 07:32:06;;;;;;;4.50;2.22;;;27.40;43.70;;;;;;4986809;28;20055;-60
2021/08/14 07:34:33;;;;;;;4.68;1.95;;;27.40;43.60;;;;;;4975748;28;20107;-58
2021/08/14 07:37:00;;;;;;;3.67;1.88;;;27.50;43.60;;;;;;4981069;28;20506;-60
2021/08/14 07:39:27;;;;;;;4.05;1.50;;;27.50;43.50;;;;;;4984144;28;20046;-59
2021/08/14 07:41:54;;;;;;;2.45;1.63;;;27.50;43.50;;;;;;4983318;28;20070;-58
2021/08/14 07:44:23;;;;;;;6.78;2.40;;;27.50;43.40;;;;;;4972842;28;20137;-60
2021/08/14 07:46:50;;;;;;;4.13;1.52;;;27.60;43.40;;;;;;4985681;28;20053;-59
2021/08/14 07:49:17;;;;;;;3.17;2.03;;;27.60;43.30;;;;;;4984293;28;20065;-60
2021/08/14 07:51:44;;;;;;;3.90;2.60;;;27.60;43.20;;;;;;4980201;28;20109;-60
2021/08/14 07:54:11;;;;;;;4.78;2.85;;;27.60;43.70;;;;;;4974626;28;20046;-61
2021/08/14 07:56:38;;;;;;;4.00;3.13;;;27.70;43.10;;;;;;4984077;28;20053;-61
2021/08/14 07:59:05;;;;;;;7.07;3.40;;;27.70;43.00;;;;;;4969032;28;20070;-60
2021/08/14 08:01:34;;;;;;;5.93;3.22;;;27.70;42.90;;;;;;4988246;28;20066;-60
2021/08/14 08:04:01;;;;;;;3.70;2.63;;;27.70;42.80;;;;;;4983517;28;20553;-61
2021/08/14 08:06:28;;;;;;;4.63;2.10;;;27.70;42.80;;;;;;4984075;28;20050;-60
2021/08/14 08:08:55;;;;;;;2.30;1.48;;;27.80;42.70;;;;;;4987785;28;20063;-61
2021/08/14 08:11:22;;;;;;;4.25;2.00;;;27.80;42.60;;;;;;4991234;28;20053;-60
2021/08/14 08:13:49;;;;;;;4.25;1.80;;;27.80;42.50;;;;;;4989248;28;20130;-60
2021/08/14 08:16:17;;;;;;;5.40;1.98;;;27.80;42.40;;;;;;4988158;28;20057;-61
2021/08/14 08:18:45;;;;;;;4.03;1.83;;;27.80;42.30;;;;;;4984239;28;20126;-61
2021/08/14 08:21:12;;;;;;;2.45;1.55;;;27.80;42.20;;;;;;4980342;28;20058;-61
2021/08/14 08:23:40;;;;;;;3.63;2.15;;;27.80;42.10;;;;;;4976738;28;20098;-59
2021/08/14 08:26:07;;;;;;;4.63;2.10;;;27.80;42.00;;;;;;4990863;28;20137;-59
2021/08/14 08:28:34;;;;;;;6.53;2.97;;;27.90;42.10;;;;;;4988686;28;20047;-58
2021/08/14 08:31:01;;;;;;;3.67;2.10;;;27.90;42.10;;;;;;4979367;28;20065;-59
2021/08/14 08:33:29;;;;;;;4.50;2.45;;;27.90;42.10;;;;;;4978206;28;20049;-59
2021/08/14 08:35:57;;;;;;;5.80;2.63;;;27.90;42.00;;;;;;4976564;28;20511;-59
2021/08/14 08:38:26;;;;;;;4.05;2.10;;;27.90;42.00;;;;;;4991530;28;20046;-59
2021/08/14 08:40:55;;;;;;;3.50;1.60;;;27.90;41.90;;;;;;4976124;28;20070;-59
2021/08/14 08:43:23;;;;;;;3.00;2.28;;;27.90;41.80;;;;;;4987829;28;20074;-59
2021/08/14 08:45:50;;;;;;;2.33;1.60;;;28.00;41.80;;;;;;4986713;28;20049;-59
2021/08/14 08:48:19;;;;;;;5.43;2.17;;;28.00;41.80;;;;;;4983605;28;20129;-57
2021/08/14 08:50:47;;;;;;;2.45;2.13;;;28.00;41.70;;;;;;4975670;28;20058;-59
2021/08/14 08:53:16;;;;;;;4.32;2.10;;;28.00;41.60;;;;;;4991549;28;20054;-59
2021/08/14 08:55:43;;;;;;;2.63;1.70;;;28.00;41.60;;;;;;4977713;28;20126;-57
2021/08/14 08:58:10;;;;;;;2.10;1.42;;;28.00;42.20;;;;;;4986488;28;20066;-59
2021/08/14 09:00:37;;;;;;;4.82;1.95;;;28.00;41.60;;;;;;4986634;28;20050;-59
2021/08/14 09:03:11;;;;;;;3.22;1.80;;;28.00;41.50;;;;;;4985872;28;20037;-59
2021/08/14 09:05:51;;;;;;;3.70;2.10;;;28.00;41.60;;;;;;4990668;28;20129;-58
2021/08/14 09:08:19;;;;;;;3.72;1.65;;;28.10;41.70;;;;;;4976121;28;20038;-59
2021/08/14 09:10:47;;;;;;;3.17;1.75;;;28.10;41.70;;;;;;4988568;28;20050;-59
2021/08/14 09:13:16;;;;;;;2.70;1.20;;;28.10;41.60;;;;;;4980119;28;20074;-59
2021/08/14 09:15:44;;;;;;;1.55;1.38;;;28.10;41.60;;;;;;4977626;28;20650;-59
2021/08/14 09:18:12;;;;;;;2.63;1.35;;;28.10;41.50;;;;;;4977724;28;20113;-59
2021/08/14 09:20:51;;;;;;;2.85;1.05;;;28.10;41.60;;;;;;4988386;28;20045;-58
2021/08/14 09:23:21;;;;;;;2.78;1.83;;;28.10;41.50;;;;;;4984248;28;20759;-59
2021/08/14 09:25:50;;;;;;;2.00;1.20;;;28.10;41.50;;;;;;4985039;28;20138;-59
2021/08/14 09:28:19;;;;;;;1.23;0.93;;;28.10;42.00;;;;;;4986897;28;20081;-59
2021/08/14 09:30:49;;;;;;;3.03;1.08;;;28.10;41.40;;;;;;4982183;28;20663;-60
2021/08/14 09:33:17;;;;;;;3.58;1.25;;;28.20;41.40;;;;;;4978703;28;20069;-60
2021/08/14 09:35:45;;;;;;;2.58;0.90;;;28.10;41.40;;;;;;4990420;28;20045;-58
2021/08/14 09:38:14;;;;;;;1.85;1.13;;;28.20;41.50;;;;;;4980454;28;20046;-61
2021/08/14 09:40:47;;;;;;;1.98;1.30;;;28.20;41.50;;;;;;4987805;28;20074;-60
2021/08/14 09:43:15;;;;;;;2.53;1.38;;;28.20;41.40;;;;;;4985856;28;20100;-60
2021/08/14 09:45:54;;;;;;;2.33;0.98;;;28.20;41.40;;;;;;4979239;28;20053;-60
2021/08/14 09:48:24;;;;;;;3.17;0.93;;;28.20;41.40;;;;;;4979189;28;20042;-60
2021/08/14 09:50:52;;;;;;;1.70;1.13;;;28.20;41.40;;;;;;4975156;28;20043;-59
2021/08/14 09:53:21;;;;;;;2.58;1.15;;;28.20;41.30;;;;;;4982461;28;20541;-56
2021/08/14 09:56:03;;;;;;;2.92;1.58;;;28.20;41.30;;;;;;4987446;28;20708;-59
2021/08/14 09:58:31;;;;;;;3.70;1.05;;;28.30;41.40;;;;;;4978118;28;20051;-60
2021/08/14 10:01:00;;;;;;;1.65;1.23;;;28.30;41.40;;;;;;4983873;28;20592;-57
2021/08/14 10:03:29;;;;;;;2.55;1.08;;;28.30;41.30;;;;;;4980669;28;20061;-59
2021/08/14 10:05:56;;;;;;;1.75;0.93;;;28.30;41.40;;;;;;4978805;28;20064;-59
2021/08/14 10:08:23;;;;;;;3.42;1.02;;;28.30;41.40;;;;;;4974960;28;20042;-56
2021/08/14 10:10:54;;;;;;;2.83;0.95;;;28.30;41.40;;;;;;4987179;28;20049;-60
2021/08/14 10:13:22;;;;;;;1.63;0.98;;;28.40;41.40;;;;;;4986886;28;20057;-60
2021/08/14 10:15:50;;;;;;;0.63;0.57;;;28.40;41.30;;;;;;4986358;28;20467;-59
2021/08/14 10:18:18;;;;;;;3.25;1.23;;;28.40;41.90;;;;;;4986657;28;20126;-59
2021/08/14 10:20:47;;;;;;;1.40;0.88;;;28.40;41.30;;;;;;4976251;28;20039;-60
2021/08/14 10:23:20;;;;;;;1.58;1.05;;;28.40;41.30;;;;;;4989428;28;20536;-60
2021/08/14 10:25:49;;;;;;;2.55;0.88;;;28.40;41.30;;;;;;4986973;28;20039;-60
2021/08/14 10:28:17;;;;;;;2.03;0.75;;;28.40;41.30;;;;;;4979010;28;20051;-60
2021/08/14 10:30:47;;;;;;;1.27;0.55;;;28.50;41.30;;;;;;4966988;28;20512;-59
2021/08/14 10:33:37;;;;;;;1.70;0.55;;;28.50;41.30;;;;;;4985870;28;20046;-58
2021/08/14 10:36:47;;;;;;;3.13;0.90;;;28.50;41.20;;;;;;4975947;28;20512;-59
2021/08/14 10:39:20;;;;;;;1.42;0.60;;;28.50;41.20;;;;;;4984661;28;20049;-59
2021/08/14 10:41:49;;;;;;;3.25;0.60;;;28.50;41.30;;;;;;4985439;28;20526;-60
2021/08/14 10:44:52;;;;;;;1.08;0.30;;;28.50;41.20;;;;;;4973547;28;20547;-61
2021/08/14 10:47:44;;;;;;;1.25;0.30;;;28.60;41.20;;;;;;4972344;28;20515;-60
2021/08/14 10:50:50;;;;;;;2.50;1.15;;;28.60;41.10;;;;;;4956463;28;20034;-57
2021/08/14 10:53:21;;;;;;;0.75;0.50;;;28.60;41.00;;;;;;4973953;28;20034;-59
2021/08/14 10:55:50;;;;;;;2.75;1.10;;;28.60;41.20;;;;;;4987249;28;20279;-60
2021/08/14 10:58:19;;;;;;;1.73;0.82;;;28.60;41.10;;;;;;4985893;28;20038;-60
2021/08/14 11:00:46;;;;;;;1.77;0.70;;;28.60;41.10;;;;;;4982989;28;20063;-61
2021/08/14 11:03:16;;;;;;;1.75;0.45;;;28.60;41.10;;;;;;4983547;28;20066;-59
2021/08/14 11:05:46;;;;;;;3.65;1.42;;;28.60;41.70;;;;;;4986406;28;20043;-59
2021/08/14 11:08:37;;;;;;;1.10;0.60;;;28.70;41.20;;;;;;4972217;28;20038;-60
2021/08/14 11:11:38;;;;;;;0.80;0.80;;;28.70;41.20;;;;;;4972701;28;20057;-60
2021/08/14 11:14:09;;;;;;;1.60;1.10;;;28.70;41.20;;;;;;4987094;28;20046;-59
2021/08/14 11:16:56;;;;;;;1.25;0.60;;;28.70;41.30;;;;;;4985811;28;20038;-59
2021/08/14 11:19:47;;;;;;;1.50;1.20;;;28.80;41.30;;;;;;4979374;28;20068;-61
2021/08/14 11:22:26;;;;;;;1.98;0.75;;;28.80;41.30;;;;;;4985350;28;20053;-61
2021/08/14 11:24:54;;;;;;;1.38;0.60;;;28.80;41.30;;;;;;4980118;28;20047;-61
2021/08/14 11:27:25;;;;;;;2.55;0.68;;;28.80;41.30;;;;;;4977922;28;20050;-62
2021/08/14 11:29:55;;;;;;;3.95;1.10;;;28.80;41.30;;;;;;4984000;28;20130;-61
2021/08/14 11:32:22;;;;;;;1.55;0.65;;;28.80;41.30;;;;;;4986841;28;20132;-61
2021/08/14 11:34:51;;;;;;;1.92;0.52;;;28.90;42.00;;;;;;4956045;28;20053;-61
2021/08/14 11:37:19;;;;;;;1.13;1.00;;;28.90;41.40;;;;;;4977541;28;20141;-61
2021/08/14 11:39:46;;;;;;;1.52;0.60;;;28.90;41.30;;;;;;4980676;28;20141;-60
2021/08/14 11:42:13;;;;;;;0.95;0.63;;;29.00;41.40;;;;;;4980781;28;20039;-61
2021/08/14 11:44:42;;;;;;;2.63;0.80;;;29.00;41.40;;;;;;4972998;28;20039;-61
2021/08/14 11:47:11;;;;;;;4.55;0.57;;;29.00;41.30;;;;;;4972001;28;20038;-61
2021/08/14 11:49:54;;;;;;;1.27;0.73;;;29.00;41.30;;;;;;4971358;28;20130;-61
2021/08/14 11:52:23;;;;;;;2.50;0.82;;;29.10;41.30;;;;;;4972475;28;20138;-61
2021/08/14 11:55:02;;;;;;;2.42;1.08;;;29.10;41.40;;;;;;4980926;28;20047;-61
2021/08/14 11:57:33;;;;;;;2.15;1.23;;;29.10;41.30;;;;;;4983702;28;20905;-60
2021/08/14 12:00:05;;;;;;;2.70;0.80;;;29.10;41.40;;;;;;4983345;28;20042;-61
2021/08/14 12:02:33;;;;;;;3.13;1.02;;;29.20;41.40;;;;;;4986890;28;20078;-60
2021/08/14 12:05:00;;;;;;;2.20;1.00;;;29.20;41.40;;;;;;4986105;28;20088;-60
2021/08/14 12:07:27;;;;;;;2.28;0.95;;;29.20;41.40;;;;;;4970310;28;20058;-60
2021/08/14 12:09:59;;;;;;;3.40;0.77;;;29.20;41.40;;;;;;4979305;28;20524;-60
2021/08/14 12:12:28;;;;;;;1.35;1.23;;;29.30;41.40;;;;;;4980371;28;20108;-61
2021/08/14 12:14:55;;;;;;;2.22;1.10;;;29.30;41.40;;;;;;4983809;28;20581;-59
2021/08/14 12:17:24;;;;;;;1.83;0.95;;;29.30;41.40;;;;;;4988057;28;20076;-60
2021/08/14 12:19:53;;;;;;;2.83;1.73;;;29.40;41.40;;;;;;4973123;28;20050;-61
2021/08/14 12:22:21;;;;;;;1.70;1.23;;;29.40;41.40;;;;;;4984355;28;20134;-61
2021/08/14 12:24:49;;;;;;;2.08;1.58;;;29.40;41.30;;;;;;4983851;28;20427;-60
2021/08/14 12:27:24;;;;;;;2.75;1.23;;;29.50;41.40;;;;;;4982267;28;20149;-59
2021/08/14 12:29:51;;;;;;;2.75;0.77;;;29.50;41.40;;;;;;4963481;28;20039;-61
2021/08/14 12:32:18;;;;;;;3.80;1.20;;;29.50;41.30;;;;;;4988012;28;20054;-61
2021/08/14 12:34:47;;;;;;;3.80;1.55;;;29.50;41.30;;;;;;4974141;28;20043;-61
2021/08/14 12:37:16;;;;;;;3.00;0.98;;;29.60;41.40;;;;;;4984103;28;20504;-60
2021/08/14 12:40:06;;;;;;;1.38;0.65;;;29.60;41.30;;;;;;4963026;28;20047;-61
2021/08/14 12:42:34;;;;;;;2.65;1.38;;;29.70;41.30;;;;;;4977959;28;20070;-61
2021/08/14 12:45:14;;;;;;;2.22;1.00;;;29.70;41.30;;;;;;4986044;28;20148;-61
2021/08/14 12:47:42;;;;;;;1.85;0.90;;;29.80;41.30;;;;;;4972770;28;20127;-61
2021/08/14 12:50:14;;;;;;;3.25;1.30;;;29.70;41.20;;;;;;4987206;28;20145;-61
2021/08/14 12:52:52;;;;;;;4.45;1.55;;;29.80;41.20;;;;;;4985837;28;20133;-61
2021/08/14 12:55:27;;;;;;;3.58;1.25;;;29.90;41.20;;;;;;4980057;28;20469;-61